Time;durP1;ratioP1;P1;durP2;ratioP2;P2;SDS_P1;SDS_P2;PMS_P1;PMS_P2;Temp;Humidity;BMP_temperature;BMP_pressure;BME280_temperature;BME280_humidity;BME280_pressure;Samples;Min_cycle;Max_cycle;Signal;HPM_P1;HPM_P2
2022/07/22 00:00:09;;;;;;;7.97;6.57;;;;;;;17.84;100.00;101113.16;4940648;29;20048;-82
2022/07/22 00:02:37;;;;;;;7.47;6.72;;;;;;;17.84;100.00;101115.81;4928686;29;20063;-84
2022/07/22 00:05:05;;;;;;;6.47;5.82;;;;;;;17.79;100.00;101113.31;4930973;29;20043;-84
2022/07/22 00:07:33;;;;;;;8.20;7.35;;;;;;;17.78;100.00;101116.00;4941710;29;20396;-84
2022/07/22 00:10:10;;;;;;;6.82;6.32;;;;;;;17.76;100.00;101116.06;4939369;29;20055;-83
2022/07/22 00:12:40;;;;;;;7.53;6.78;;;;;;;17.74;100.00;101115.22;4926152;29;20377;-82
2022/07/22 00:15:10;;;;;;;6.95;6.35;;;;;;;17.75;100.00;101119.63;4943896;29;20107;-82
2022/07/22 00:17:37;;;;;;;7.10;6.40;;;;;;;17.79;100.00;101123.03;4958946;28;20262;-82
2022/07/22 00:20:09;;;;;;;6.72;6.10;;;;;;;17.81;100.00;101114.13;4927738;29;20048;-80
2022/07/22 00:22:36;;;;;;;6.65;6.10;;;;;;;17.86;100.00;101119.31;4942921;29;20385;-83
2022/07/22 00:25:04;;;;;;;7.03;6.13;;;;;;;17.91;100.00;101113.84;4923480;29;20074;-84
2022/07/22 00:27:31;;;;;;;6.35;5.93;;;;;;;17.97;100.00;101116.31;4939460;29;20094;-83
2022/07/22 00:29:58;;;;;;;7.32;6.63;;;;;;;18.06;100.00;101109.88;4929836;29;20074;-82
2022/07/22 00:32:26;;;;;;;8.00;7.25;;;;;;;18.15;100.00;101112.22;4920115;29;20048;-83
2022/07/22 00:34:53;;;;;;;7.38;6.53;;;;;;;18.20;100.00;101104.97;4943616;29;20048;-83
2022/07/22 00:37:23;;;;;;;6.45;5.95;;;;;;;18.24;100.00;101103.06;4959145;28;20063;-80
2022/07/22 00:39:50;;;;;;;7.65;6.97;;;;;;;18.27;100.00;101105.63;4942766;29;20058;-83
2022/07/22 00:42:17;;;;;;;7.60;6.93;;;;;;;18.32;99.69;101107.19;4943102;29;20052;-81
2022/07/22 00:44:45;;;;;;;9.48;5.70;;;;;;;18.39;99.25;101105.19;4930784;29;20031;-84
2022/07/22 00:47:15;;;;;;;7.25;6.55;;;;;;;18.45;98.82;101097.03;4932158;29;20079;-83
2022/07/22 00:49:42;;;;;;;7.22;6.60;;;;;;;18.50;98.27;101100.41;4934026;29;20138;-81
2022/07/22 00:52:09;;;;;;;6.80;6.30;;;;;;;18.54;98.43;101101.16;4947723;29;20108;-84
2022/07/22 00:54:41;;;;;;;7.22;6.57;;;;;;;18.57;98.01;101098.41;4950566;28;20051;-83
2022/07/22 00:57:16;;;;;;;7.30;6.50;;;;;;;18.63;97.46;101100.84;4955514;28;20087;-82
2022/07/22 00:59:45;;;;;;;8.20;7.47;;;;;;;18.70;97.17;101098.81;4936045;28;20051;-83
2022/07/22 01:02:12;;;;;;;8.02;6.97;;;;;;;18.70;97.15;101101.47;4952826;29;20082;-83
2022/07/22 01:04:42;;;;;;;8.15;7.45;;;;;;;18.72;97.12;101104.06;4947070;28;20059;-85
2022/07/22 01:07:13;;;;;;;7.47;6.78;;;;;;;18.72;96.99;101101.41;4935289;28;20038;-83
2022/07/22 01:09:49;;;;;;;7.53;6.82;;;;;;;18.65;97.34;101103.44;4947483;28;20039;-82
2022/07/22 01:12:25;;;;;;;8.07;7.35;;;;;;;18.63;97.99;101106.13;4955206;28;20034;-83
2022/07/22 01:14:56;;;;;;;8.18;7.43;;;;;;;18.63;98.18;101110.56;4937673;29;20047;-81
2022/07/22 01:17:39;;;;;;;7.32;6.72;;;;;;;18.65;97.99;101106.94;4952905;28;20066;-82
2022/07/22 01:20:08;;;;;;;9.20;7.18;;;;;;;18.68;98.06;101111.25;4936938;28;20043;-84
2022/07/22 01:22:38;;;;;;;8.05;6.60;;;;;;;18.70;98.28;101113.88;4951653;29;20053;-84
2022/07/22 01:25:06;;;;;;;8.35;7.47;;;;;;;18.66;99.13;101113.97;4949363;29;20055;-84
2022/07/22 01:27:33;;;;;;;7.53;6.82;;;;;;;18.67;99.34;101113.06;4951851;28;20047;-82
2022/07/22 01:30:00;;;;;;;12.30;9.15;;;;;;;18.67;100.00;101115.72;4947751;29;20039;-82
2022/07/22 01:32:30;;;;;;;9.30;8.35;;;;;;;18.62;100.00;101109.69;4949792;29;20043;-84
2022/07/22 01:35:00;;;;;;;8.52;7.63;;;;;;;18.54;100.00;101110.88;4934962;29;20035;-83
2022/07/22 01:37:38;;;;;;;8.18;7.45;;;;;;;18.49;100.00;101109.25;4947600;29;20039;-84
2022/07/22 01:40:14;;;;;;;10.25;9.23;;;;;;;18.32;100.00;101109.84;4934021;29;20042;-85
2022/07/22 01:45:29;;;;;;;8.52;7.78;;;;;;;18.07;100.00;101123.06;4933543;29;20047;-84
2022/07/22 01:48:14;;;;;;;10.52;9.52;;;;;;;17.97;100.00;101124.28;4955556;29;20047;-86
2022/07/22 01:50:45;;;;;;;9.77;8.82;;;;;;;17.86;100.00;101129.91;4939220;29;20059;-82
2022/07/22 01:53:19;;;;;;;11.10;9.88;;;;;;;17.82;100.00;101131.75;4955146;29;20031;-84
2022/07/22 01:56:15;;;;;;;10.00;8.77;;;;;;;17.78;100.00;101123.94;4934656;28;20046;-83
2022/07/22 02:01:42;;;;;;;6.82;6.22;;;;;;;17.69;100.00;101135.69;4944585;28;20058;-83
2022/07/22 02:04:25;;;;;;;6.30;5.78;;;;;;;17.61;100.00;101137.72;4952705;29;20075;-84
2022/07/22 02:06:56;;;;;;;6.03;5.50;;;;;;;17.57;100.00;101136.94;4936422;29;20075;-83
2022/07/22 02:09:26;;;;;;;5.00;4.50;;;;;;;17.56;100.00;101139.63;4955421;29;20039;-83
2022/07/22 02:12:05;;;;;;;5.10;4.70;;;;;;;17.56;100.00;101143.16;4940719;28;20111;-84
2022/07/22 02:14:32;;;;;;;3.83;3.47;;;;;;;17.58;100.00;101143.13;4925362;28;20070;-81
2022/07/22 02:17:06;;;;;;;4.80;4.40;;;;;;;17.59;100.00;101142.22;4951608;28;20070;-83
2022/07/22 02:19:54;;;;;;;3.65;3.35;;;;;;;17.60;100.00;101146.56;4954320;28;20024;-84
2022/07/22 02:22:24;;;;;;;4.80;4.25;;;;;;;17.56;100.00;101147.56;4916422;29;20051;-85
2022/07/22 02:25:04;;;;;;;5.47;4.80;;;;;;;17.52;100.00;101152.09;4943145;29;20078;-83
2022/07/22 02:27:37;;;;;;;4.55;4.15;;;;;;;17.47;100.00;101156.66;4934613;29;20120;-84
2022/07/22 02:30:08;;;;;;;4.82;4.07;;;;;;;17.43;100.00;101158.53;4984423;23;20083;-85
2022/07/22 02:32:36;;;;;;;3.80;3.50;;;;;;;17.41;100.00;101163.00;4934166;28;20074;-84
2022/07/22 02:35:04;;;;;;;4.07;3.67;;;;;;;17.40;100.00;101163.91;4922871;29;20051;-85
2022/07/22 02:37:32;;;;;;;7.05;4.05;;;;;;;17.39;100.00;101169.25;4935941;28;20042;-86
2022/07/22 02:39:58;;;;;;;6.53;4.10;;;;;;;17.35;100.00;101177.28;4937196;28;20082;-85
2022/07/22 02:42:25;;;;;;;4.53;3.92;;;;;;;17.31;100.00;101180.94;4923507;28;20055;-86
2022/07/22 02:44:54;;;;;;;5.65;4.10;;;;;;;17.27;100.00;101179.28;4938529;28;20047;-89
2022/07/22 02:47:21;;;;;;;4.03;3.53;;;;;;;17.28;100.00;101180.16;4951064;28;20058;-84
2022/07/22 02:49:48;;;;;;;4.10;3.75;;;;;;;17.26;100.00;101176.66;4924123;29;20053;-86
2022/07/22 02:52:15;;;;;;;6.32;4.35;;;;;;;17.23;100.00;101179.41;4926339;28;20074;-85
2022/07/22 02:54:43;;;;;;;6.78;3.75;;;;;;;17.19;100.00;101178.63;4928379;28;20046;-89
2022/07/22 02:57:10;;;;;;;5.63;4.13;;;;;;;17.12;100.00;101188.53;4910787;28;20050;-90
2022/07/22 02:59:37;;;;;;;4.05;3.67;;;;;;;17.06;100.00;101178.09;4946341;28;20039;-84
2022/07/22 03:02:04;;;;;;;6.93;4.53;;;;;;;17.03;100.00;101181.69;4936287;29;20043;-85
2022/07/22 03:04:30;;;;;;;5.10;3.45;;;;;;;17.03;100.00;101188.78;4952051;28;20039;-86
2022/07/22 03:06:57;;;;;;;4.03;3.63;;;;;;;17.05;100.00;101199.31;4932702;29;20059;-84
2022/07/22 03:09:23;;;;;;;5.38;3.90;;;;;;;17.05;100.00;101200.16;4919210;29;20051;-86
2022/07/22 03:11:50;;;;;;;4.60;3.30;;;;;;;17.03;100.00;101205.50;4930144;29;20039;-84
2022/07/22 03:14:18;;;;;;;3.38;2.42;;;;;;;17.08;100.00;101205.38;4934194;29;20499;-87
2022/07/22 03:16:45;;;;;;;2.80;2.60;;;;;;;17.07;100.00;101216.03;4954586;28;20059;-84
2022/07/22 03:19:14;;;;;;;3.30;3.00;;;;;;;17.05;100.00;101202.81;4922819;28;20058;-85
2022/07/22 03:21:41;;;;;;;2.90;2.70;;;;;;;17.04;100.00;101209.03;4926050;28;20047;-84
2022/07/22 03:24:07;;;;;;;4.82;2.92;;;;;;;17.02;100.00;101206.41;4951504;28;20094;-87
2022/07/22 03:26:34;;;;;;;2.75;2.55;;;;;;;16.98;100.00;101215.34;4923487;29;20047;-84
2022/07/22 03:29:01;;;;;;;4.40;3.38;;;;;;;16.97;100.00;101218.91;4938947;28;20046;-86
2022/07/22 03:31:27;;;;;;;7.53;3.97;;;;;;;16.93;100.00;101206.66;4919027;29;20126;-84
2022/07/22 03:33:57;;;;;;;6.88;3.95;;;;;;;16.95;100.00;101214.56;4918921;29;20458;-83
2022/07/22 03:36:24;;;;;;;7.72;4.30;;;;;;;16.94;100.00;101211.03;4915269;29;20043;-83
2022/07/22 03:38:50;;;;;;;6.65;4.57;;;;;;;16.91;100.00;101205.84;4947703;28;20031;-86
2022/07/22 03:41:17;;;;;;;6.18;4.63;;;;;;;16.85;100.00;101211.25;4932620;28;20067;-84
2022/07/22 03:43:46;;;;;;;6.10;4.68;;;;;;;16.85;100.00;101216.53;4950414;28;20486;-86
2022/07/22 03:46:13;;;;;;;7.82;4.65;;;;;;;16.85;100.00;101217.41;4935097;28;20039;-86
2022/07/22 03:48:40;;;;;;;4.40;4.00;;;;;;;16.84;100.00;101217.44;4935172;29;20520;-90
2022/07/22 03:51:07;;;;;;;4.47;4.07;;;;;;;16.84;100.00;101222.72;4922343;28;20085;-86
2022/07/22 03:53:34;;;;;;;6.78;3.72;;;;;;;16.84;100.00;101220.09;4934134;28;20051;-86
2022/07/22 03:56:01;;;;;;;3.70;3.40;;;;;;;16.85;100.00;101213.91;4933486;29;20090;-87
2022/07/22 03:58:28;;;;;;;4.15;3.85;;;;;;;16.80;100.00;101223.72;4934993;29;20604;-85
2022/07/22 04:00:55;;;;;;;4.80;3.78;;;;;;;16.79;100.00;101227.28;4930946;28;20176;-84
2022/07/22 04:03:22;;;;;;;5.85;3.70;;;;;;;16.76;100.00;101228.22;4933934;28;20043;-85
2022/07/22 04:05:48;;;;;;;8.23;4.60;;;;;;;16.72;100.00;101229.22;4939268;29;20058;-85
2022/07/22 04:08:17;;;;;;;5.00;4.40;;;;;;;16.67;100.00;101233.75;4934041;29;20039;-86
2022/07/22 04:10:43;;;;;;;5.60;5.10;;;;;;;16.63;100.00;101230.28;4919361;29;20043;-82
2022/07/22 04:13:10;;;;;;;4.68;4.28;;;;;;;16.63;100.00;101230.28;4934717;29;20066;-85
2022/07/22 04:15:37;;;;;;;5.32;4.00;;;;;;;16.66;100.00;101227.59;4931976;29;20044;-86
2022/07/22 04:18:03;;;;;;;5.22;4.05;;;;;;;16.70;100.00;101231.91;4931610;28;20050;-84
2022/07/22 04:20:30;;;;;;;5.22;4.68;;;;;;;16.73;100.00;101235.38;4937383;29;20047;-86
2022/07/22 04:22:57;;;;;;;7.93;5.60;;;;;;;16.77;100.00;101232.59;4933170;28;20058;-83
2022/07/22 04:25:23;;;;;;;7.50;6.07;;;;;;;16.78;100.00;101233.47;4940313;28;20039;-86
2022/07/22 04:27:52;;;;;;;6.22;5.18;;;;;;;16.74;100.00;101230.06;4935553;28;20039;-86
2022/07/22 04:30:19;;;;;;;5.97;5.32;;;;;;;16.75;100.00;101236.19;4937264;28;20055;-83
2022/07/22 04:32:45;;;;;;;7.10;4.85;;;;;;;16.72;100.00;101234.50;4954086;28;20114;-84
2022/07/22 04:35:12;;;;;;;5.80;4.88;;;;;;;16.78;100.00;101236.09;4936499;28;20051;-89
2022/07/22 04:37:38;;;;;;;4.72;4.32;;;;;;;16.81;100.00;101242.19;4935352;28;20071;-88
2022/07/22 04:40:08;;;;;;;5.63;4.78;;;;;;;16.77;100.00;101231.75;4936252;28;20051;-87
2022/07/22 04:42:34;;;;;;;5.40;4.57;;;;;;;16.76;100.00;101235.28;4920970;28;20043;-86
2022/07/22 04:45:01;;;;;;;10.43;5.03;;;;;;;16.75;100.00;101231.78;4929832;28;20038;-81
2022/07/22 04:47:30;;;;;;;6.97;4.78;;;;;;;16.73;100.00;101230.09;4928222;28;20047;-84
2022/07/22 04:49:59;;;;;;;7.38;4.55;;;;;;;16.69;100.00;101231.94;4932429;29;20040;-85
2022/07/22 04:52:27;;;;;;;4.93;4.30;;;;;;;16.68;100.00;101236.34;4952506;28;20509;-86
2022/07/22 04:54:54;;;;;;;7.35;3.83;;;;;;;16.64;100.00;101236.47;4938494;29;20154;-86
2022/07/22 04:57:21;;;;;;;4.43;4.10;;;;;;;16.63;100.00;101247.94;4949626;28;20046;-85
2022/07/22 04:59:50;;;;;;;4.38;4.00;;;;;;;16.63;100.00;101251.44;4952679;28;20076;-87
2022/07/22 05:02:17;;;;;;;6.28;4.10;;;;;;;16.66;100.00;101246.09;4934469;28;20046;-84
2022/07/22 05:04:43;;;;;;;6.22;4.47;;;;;;;16.73;100.00;101259.19;4934584;28;20528;-84
2022/07/22 05:07:10;;;;;;;4.88;4.30;;;;;;;16.73;100.00;101262.69;4951986;28;20059;-85
2022/07/22 05:09:37;;;;;;;5.82;4.68;;;;;;;16.76;100.00;101267.88;4917944;29;20048;-86
2022/07/22 05:12:04;;;;;;;5.35;4.95;;;;;;;16.75;100.00;101263.53;4936323;29;20039;-84
2022/07/22 05:14:31;;;;;;;7.22;5.53;;;;;;;16.73;100.00;101267.97;4948641;28;20095;-86
2022/07/22 05:16:59;;;;;;;6.65;5.50;;;;;;;16.65;100.00;101267.28;4920512;29;20058;-84
2022/07/22 05:19:26;;;;;;;8.27;6.43;;;;;;;16.65;100.00;101269.94;4919341;29;20047;-89
2022/07/22 05:21:54;;;;;;;11.20;5.30;;;;;;;16.64;100.00;101274.34;4935656;28;20063;-86
2022/07/22 05:24:21;;;;;;;6.82;5.22;;;;;;;16.64;100.00;101262.91;4926262;28;20035;-84
2022/07/22 05:26:56;;;;;;;5.75;5.25;;;;;;;16.65;100.00;101267.28;4936563;28;20138;-84
2022/07/22 05:29:24;;;;;;;6.32;5.63;;;;;;;16.64;100.00;101269.06;4924222;28;20192;-85
2022/07/22 05:31:51;;;;;;;7.82;6.00;;;;;;;16.71;100.00;101272.41;4955202;28;20055;-84
2022/07/22 05:34:19;;;;;;;7.30;5.97;;;;;;;16.74;100.00;101279.41;4953248;28;20051;-85
2022/07/22 05:36:46;;;;;;;9.02;5.60;;;;;;;16.79;100.00;101277.50;4941116;28;20143;-84
2022/07/22 05:39:12;;;;;;;14.65;8.15;;;;;;;16.82;100.00;101280.09;4959820;28;20051;-85
2022/07/22 05:41:39;;;;;;;10.77;7.03;;;;;;;16.87;100.00;101270.28;4961253;28;20116;-88
2022/07/22 05:44:07;;;;;;;11.10;7.60;;;;;;;16.94;100.00;101273.66;4956928;28;20106;-84
2022/07/22 05:46:34;;;;;;;16.63;8.68;;;;;;;17.00;98.80;101287.59;4960504;28;20131;-84
2022/07/22 05:49:03;;;;;;;11.00;8.05;;;;;;;16.94;98.99;101281.59;4944237;28;20055;-85
2022/07/22 05:51:30;;;;;;;9.43;7.03;;;;;;;16.95;99.38;101281.53;4972078;28;20051;-84
2022/07/22 05:53:59;;;;;;;12.38;6.50;;;;;;;16.99;98.43;101282.34;4961340;28;20042;-83
2022/07/22 05:56:32;;;;;;;8.02;6.72;;;;;;;16.98;98.83;101281.44;4961168;28;20051;-84
2022/07/22 05:58:59;;;;;;;8.98;5.70;;;;;;;17.00;98.42;101287.59;4963430;28;20039;-84
2022/07/22 06:01:27;;;;;;;5.60;5.10;;;;;;;17.04;98.00;101296.31;4968117;29;20037;-87
2022/07/22 06:03:54;;;;;;;6.07;4.60;;;;;;;17.04;97.23;101285.75;4943370;29;20108;-85
2022/07/22 06:06:22;;;;;;;5.75;5.20;;;;;;;17.06;97.64;101288.34;4926375;28;20074;-84
2022/07/22 06:08:48;;;;;;;7.20;5.50;;;;;;;17.10;97.25;101290.00;4970607;28;20054;-86
2022/07/22 06:11:15;;;;;;;5.63;4.93;;;;;;;17.11;97.08;101294.38;4937530;29;20058;-84
2022/07/22 06:13:42;;;;;;;7.45;5.47;;;;;;;17.14;96.87;101294.28;4939613;29;20035;-85
2022/07/22 06:16:10;;;;;;;9.82;5.00;;;;;;;17.16;96.20;101293.34;4941575;29;20118;-83
2022/07/22 06:18:37;;;;;;;4.70;4.22;;;;;;;17.13;96.11;101292.53;4940688;29;20047;-85
2022/07/22 06:21:08;;;;;;;8.00;4.88;;;;;;;17.15;96.07;101301.31;4959599;28;20039;-88
2022/07/22 06:23:35;;;;;;;5.25;4.75;;;;;;;17.17;95.72;101300.38;4959006;28;20043;-87
2022/07/22 06:26:02;;;;;;;5.53;4.88;;;;;;;17.22;95.41;101297.59;4962118;28;20054;-89
2022/07/22 06:28:29;;;;;;;4.80;3.75;;;;;;;17.25;94.94;101297.53;4961804;28;20047;-88
2022/07/22 06:30:55;;;;;;;5.65;5.07;;;;;;;17.32;94.54;101295.59;4964183;28;20062;-87
2022/07/22 06:33:22;;;;;;;9.00;4.78;;;;;;;17.35;94.08;101292.84;4959217;28;20042;-86
2022/07/22 06:35:49;;;;;;;4.93;4.00;;;;;;;17.39;93.47;101298.94;4944771;29;20051;-86
2022/07/22 06:38:16;;;;;;;9.77;4.72;;;;;;;17.44;92.71;101295.25;4962531;28;20035;-84
2022/07/22 06:40:45;;;;;;;4.28;3.88;;;;;;;17.47;92.35;101300.47;4961333;28;20376;-82
2022/07/22 06:43:13;;;;;;;4.85;3.78;;;;;;;17.51;92.39;101301.25;4955316;28;20077;-84
2022/07/22 06:45:40;;;;;;;3.92;3.33;;;;;;;17.62;92.03;101295.66;4954865;28;20486;-85
2022/07/22 06:48:10;;;;;;;5.65;3.35;;;;;;;17.66;90.69;101298.19;4951817;28;20071;-84
2022/07/22 06:57:05;;;;;;;3.38;3.08;;;;;;;17.95;88.94;101295.63;4934772;29;20055;-83
2022/07/22 07:00:30;;;;;;;3.45;3.15;;;;;;;18.16;87.22;101291.44;4945335;28;20047;-86
2022/07/22 07:03:00;;;;;;;8.38;3.60;;;;;;;18.29;85.69;101290.19;4942983;28;20795;-89
2022/07/22 07:05:33;;;;;;;6.77;3.03;;;;;;;18.41;84.38;101294.22;4933826;28;20043;-87
2022/07/22 07:08:07;;;;;;;3.50;2.67;;;;;;;18.56;84.27;101297.31;4955643;28;20052;-84
2022/07/22 07:10:34;;;;;;;6.82;3.53;;;;;;;18.64;82.65;101295.25;4937019;29;20287;-85
2022/07/22 07:13:01;;;;;;;3.85;3.35;;;;;;;18.50;81.91;101303.69;4951173;28;20176;-88
2022/07/22 07:15:29;;;;;;;3.58;3.28;;;;;;;18.34;83.28;101304.16;4937436;29;20090;-86
2022/07/22 07:17:57;;;;;;;6.85;3.78;;;;;;;18.25;83.49;101309.75;4950930;28;20055;-81
2022/07/22 07:20:25;;;;;;;7.10;4.40;;;;;;;18.01;84.46;101309.53;4953223;28;20070;-84
2022/07/22 07:22:55;;;;;;;6.75;4.28;;;;;;;17.86;85.97;101310.84;4952915;28;20126;-86
2022/07/22 07:25:22;;;;;;;8.43;4.72;;;;;;;17.76;86.40;101313.81;4950986;28;20106;-85
2022/07/22 07:27:49;;;;;;;5.15;3.60;;;;;;;17.63;87.47;101316.78;4954816;28;20134;-84
2022/07/22 07:30:16;;;;;;;8.50;3.55;;;;;;;17.56;87.15;101309.06;4951362;28;20067;-85
2022/07/22 07:32:43;;;;;;;5.53;3.58;;;;;;;17.52;87.17;101310.91;4951566;28;20051;-86
2022/07/22 07:35:11;;;;;;;5.20;3.17;;;;;;;17.57;86.24;101308.16;4936550;28;20047;-83
2022/07/22 07:37:37;;;;;;;3.85;3.30;;;;;;;17.71;85.31;101307.78;4938061;28;20043;-85
2022/07/22 07:40:06;;;;;;;5.05;2.22;;;;;;;18.02;84.19;101311.28;4952392;28;20062;-92
2022/07/22 07:42:40;;;;;;;2.67;2.20;;;;;;;18.47;80.87;101307.28;4950560;28;20118;-85
2022/07/22 07:45:09;;;;;;;6.55;2.70;;;;;;;18.90;78.26;101310.34;4951094;28;20046;-88
2022/07/22 07:47:36;;;;;;;3.25;1.38;;;;;;;19.31;74.92;101309.88;4952062;28;20051;-83
2022/07/22 07:50:07;;;;;;;2.88;1.52;;;;;;;19.60;73.48;101307.97;4953898;28;20130;-85
2022/07/22 07:52:47;;;;;;;3.45;2.00;;;;;;;19.86;71.54;101308.84;4953776;28;20553;-87
2022/07/22 07:55:14;;;;;;;3.58;1.77;;;;;;;20.43;70.20;101304.84;4950938;28;20048;-84
2022/07/22 07:57:41;;;;;;;2.45;1.98;;;;;;;21.08;67.63;101302.22;4936310;29;20091;-84
2022/07/22 08:00:11;;;;;;;4.35;1.77;;;;;;;21.69;64.82;101289.78;4950588;28;20043;-82
2022/07/22 08:02:40;;;;;;;3.25;1.70;;;;;;;22.08;63.40;101290.69;4952306;28;20039;-89
2022/07/22 08:05:08;;;;;;;2.25;1.83;;;;;;;22.17;62.05;101290.25;4934242;28;20057;-84
2022/07/22 08:07:35;;;;;;;4.55;1.33;;;;;;;22.08;62.08;101293.34;4931839;28;20047;-85
2022/07/22 08:10:05;;;;;;;3.25;1.38;;;;;;;21.97;62.08;101301.88;4949684;28;20063;-85
2022/07/22 08:12:32;;;;;;;3.17;1.77;;;;;;;21.91;61.06;101295.00;4950785;28;20051;-87
2022/07/22 08:14:59;;;;;;;6.10;1.23;;;;;;;21.83;61.97;101298.97;4947400;28;20050;-85
2022/07/22 08:17:27;;;;;;;3.00;1.83;;;;;;;21.98;61.23;101303.59;4935501;28;20113;-84
2022/07/22 08:19:53;;;;;;;3.28;1.63;;;;;;;22.09;61.12;101303.09;4947292;28;20490;-87
2022/07/22 08:22:28;;;;;;;6.35;1.42;;;;;;;21.98;61.19;101301.78;4949493;28;20067;-85
2022/07/22 08:24:55;;;;;;;1.90;1.15;;;;;;;21.73;60.95;101303.84;4933925;28;20043;-85
2022/07/22 08:27:24;;;;;;;4.05;1.65;;;;;;;21.40;62.09;101299.94;4938573;28;20051;-86
2022/07/22 08:29:54;;;;;;;2.88;1.90;;;;;;;21.02;62.97;101304.28;4950255;28;20136;-85
2022/07/22 08:32:24;;;;;;;3.78;1.92;;;;;;;20.69;64.43;101308.25;4950494;28;20043;-90
2022/07/22 08:34:51;;;;;;;3.47;1.77;;;;;;;20.52;65.36;101308.94;4950131;28;20043;-90
2022/07/22 08:37:19;;;;;;;5.97;1.92;;;;;;;20.31;66.41;101313.28;4933450;29;20443;-84
2022/07/22 08:39:46;;;;;;;6.18;2.03;;;;;;;20.25;66.31;101309.09;4949934;28;20107;-85
2022/07/22 08:42:13;;;;;;;4.20;1.75;;;;;;;20.07;66.35;101317.78;4953459;28;20059;-88
2022/07/22 08:44:41;;;;;;;3.53;1.80;;;;;;;19.87;66.65;101310.53;4934615;29;20454;-83
2022/07/22 08:47:07;;;;;;;6.82;2.13;;;;;;;19.76;67.50;101316.22;4954303;28;20046;-87
2022/07/22 08:49:34;;;;;;;6.28;2.45;;;;;;;19.78;67.57;101314.41;4952174;28;20490;-88
2022/07/22 08:52:01;;;;;;;5.07;2.00;;;;;;;19.79;67.64;101317.00;4950926;28;20094;-86
2022/07/22 08:54:28;;;;;;;3.40;2.08;;;;;;;19.85;67.43;101313.25;4934632;29;20075;-87
2022/07/22 08:56:55;;;;;;;3.47;2.50;;;;;;;19.99;67.11;101323.38;4951281;28;20054;-85
2022/07/22 08:59:21;;;;;;;6.10;1.85;;;;;;;20.08;66.91;101324.81;4952667;28;20049;-85
2022/07/22 09:02:07;;;;;;;7.28;2.40;;;;;;;20.24;66.20;101311.81;4969118;28;20047;-90
2022/07/22 09:04:51;;;;;;;3.38;1.73;;;;;;;20.41;65.87;101319.97;4958760;28;20138;-90
2022/07/22 09:07:34;;;;;;;6.15;1.65;;;;;;;20.41;64.79;101316.47;4966797;28;20113;-93
2022/07/22 09:10:09;;;;;;;3.10;1.65;;;;;;;20.39;65.02;101315.63;4968118;28;20115;-90
2022/07/22 09:12:37;;;;;;;4.50;1.65;;;;;;;20.55;64.41;101310.59;4988340;28;20039;-86
2022/07/22 09:15:08;;;;;;;2.63;1.92;;;;;;;20.84;63.15;101317.41;4970636;28;20055;-89
2022/07/22 09:17:38;;;;;;;5.75;2.15;;;;;;;20.80;63.11;101324.63;4973837;28;20059;-91
2022/07/22 09:20:20;;;;;;;3.58;1.85;;;;;;;20.55;64.07;101327.41;4960387;28;20042;-91
2022/07/22 09:22:49;;;;;;;2.97;1.98;;;;;;;20.19;65.18;101330.56;4975707;28;20058;-91
2022/07/22 09:25:39;;;;;;;2.75;1.50;;;;;;;20.06;65.82;101324.00;4969432;28;20118;-85
2022/07/22 09:28:09;;;;;;;3.05;1.75;;;;;;;20.12;65.63;101326.44;4957219;28;20224;-84
2022/07/22 09:30:40;;;;;;;4.70;2.15;;;;;;;20.39;64.64;101324.50;4960378;28;20086;-84
2022/07/22 09:33:10;;;;;;;2.95;2.05;;;;;;;20.80;63.21;101324.63;4955532;28;20078;-85
2022/07/22 09:35:41;;;;;;;4.68;1.65;;;;;;;21.05;62.32;101328.09;4960961;28;20047;-84
2022/07/22 09:38:16;;;;;;;1.65;1.40;;;;;;;21.22;61.84;101324.69;4953722;28;20073;-87
2022/07/22 09:40:46;;;;;;;4.18;1.98;;;;;;;21.41;61.53;101336.28;4941519;28;20134;-92
2022/07/22 09:43:16;;;;;;;5.40;1.95;;;;;;;21.64;60.74;101331.75;4956332;28;20059;-83
2022/07/22 09:45:58;;;;;;;4.40;2.30;;;;;;;21.80;59.71;101326.63;4947712;29;20047;-84
2022/07/22 09:48:33;;;;;;;4.28;2.08;;;;;;;21.81;60.04;101326.56;4942221;29;20122;-83
2022/07/22 09:51:00;;;;;;;3.17;1.95;;;;;;;21.72;60.57;101336.75;4937860;29;20043;-84
2022/07/22 09:53:32;;;;;;;3.78;2.08;;;;;;;21.42;60.92;101340.69;4937975;29;20063;-84
2022/07/22 09:56:01;;;;;;;4.20;2.20;;;;;;;21.10;62.52;101336.75;4954539;28;20102;-84
2022/07/22 09:58:28;;;;;;;3.30;1.92;;;;;;;20.86;63.04;101341.28;4956917;28;20067;-87
2022/07/22 10:01:00;;;;;;;2.08;1.77;;;;;;;20.73;63.96;101341.81;4960235;28;20047;-87
2022/07/22 10:03:33;;;;;;;4.03;1.85;;;;;;;20.59;64.62;101334.34;4943155;29;20043;-84
2022/07/22 10:06:01;;;;;;;4.68;1.83;;;;;;;20.53;64.75;101341.69;4946079;29;20452;-86
2022/07/22 10:08:32;;;;;;;2.80;2.40;;;;;;;20.51;64.94;101352.41;4949969;29;20046;-87
2022/07/22 10:11:07;;;;;;;4.85;2.40;;;;;;;20.43;65.08;101339.41;4961846;28;20074;-88
2022/07/22 10:13:34;;;;;;;3.33;1.95;;;;;;;20.45;65.27;101334.03;4961401;28;20035;-84
2022/07/22 10:16:02;;;;;;;2.20;1.63;;;;;;;20.61;64.34;101340.47;4946724;29;20059;-83
2022/07/22 10:18:35;;;;;;;7.40;2.08;;;;;;;20.88;63.72;101334.97;4962725;28;20043;-86
2022/07/22 10:21:05;;;;;;;2.22;1.95;;;;;;;21.42;61.24;101335.38;4947641;28;20147;-87
2022/07/22 10:24:12;;;;;;;2.05;1.75;;;;;;;21.54;60.73;101328.66;4946237;28;20118;-86
2022/07/22 10:26:58;;;;;;;2.38;1.10;;;;;;;21.74;59.78;101338.41;4964202;28;20047;-86
2022/07/22 10:29:43;;;;;;;2.45;1.45;;;;;;;21.72;59.02;101334.09;4942846;28;20055;-89
2022/07/22 10:32:21;;;;;;;2.63;1.10;;;;;;;21.72;59.57;101326.09;4940420;29;20056;-85
2022/07/22 10:35:03;;;;;;;2.20;1.30;;;;;;;21.70;58.70;101333.31;4958088;28;20039;-84
2022/07/22 10:37:38;;;;;;;3.40;1.35;;;;;;;21.93;59.10;101325.13;4955881;28;20431;-85
2022/07/22 10:40:21;;;;;;;3.90;1.65;;;;;;;22.21;57.89;101322.97;4952986;28;20047;-86
2022/07/22 10:43:07;;;;;;;3.80;1.80;;;;;;;22.23;57.74;101327.31;4942930;28;20039;-85
2022/07/22 10:45:45;;;;;;;5.43;2.08;;;;;;;22.20;57.99;101334.56;4957979;28;20048;-84
2022/07/22 10:48:15;;;;;;;2.08;1.85;;;;;;;21.95;58.74;101333.06;4967157;28;20506;-88
2022/07/22 10:50:51;;;;;;;1.65;1.50;;;;;;;21.52;59.30;101326.97;4955233;28;20043;-84
2022/07/22 10:53:41;;;;;;;4.65;2.10;;;;;;;21.10;60.35;101324.28;4955006;28;20042;-88
2022/07/22 10:56:24;;;;;;;5.95;2.13;;;;;;;20.88;61.27;101326.13;4956775;28;20051;-86
2022/07/22 10:59:10;;;;;;;2.50;1.77;;;;;;;20.75;61.52;101325.78;4954975;28;20423;-87
2022/07/22 11:01:48;;;;;;;4.25;1.80;;;;;;;20.63;62.04;101324.44;4953225;28;20044;-85
2022/07/22 11:04:21;;;;;;;5.93;2.08;;;;;;;20.51;61.94;101325.81;4947787;28;20129;-85
2022/07/22 11:06:57;;;;;;;2.17;1.45;;;;;;;20.43;62.70;101330.56;4937805;29;20043;-85
2022/07/22 11:09:35;;;;;;;2.63;1.90;;;;;;;20.52;62.38;101326.66;4953874;28;20051;-85
2022/07/22 11:12:02;;;;;;;3.80;2.30;;;;;;;20.38;62.43;101330.75;4955920;28;20101;-89
2022/07/22 11:14:33;;;;;;;3.88;2.17;;;;;;;20.36;62.58;101329.06;4951098;28;20134;-87
2022/07/22 11:17:14;;;;;;;2.50;2.30;;;;;;;20.37;62.44;101325.50;4938311;28;20047;-84
2022/07/22 11:19:44;;;;;;;3.92;2.20;;;;;;;20.41;62.31;101340.38;4939438;29;20098;-87
2022/07/22 11:22:16;;;;;;;3.72;1.88;;;;;;;20.44;61.64;101333.16;4951895;28;20055;-85
2022/07/22 11:24:43;;;;;;;3.88;2.20;;;;;;;20.45;61.84;101328.69;4951790;28;20075;-84
2022/07/22 11:27:21;;;;;;;3.58;1.98;;;;;;;20.66;60.60;101317.22;4953540;28;20048;-85
2022/07/22 11:29:54;;;;;;;5.70;2.92;;;;;;;20.91;60.50;101321.56;4949916;28;20043;-85
2022/07/22 11:32:27;;;;;;;2.27;1.90;;;;;;;21.23;59.60;101319.31;4948639;28;20048;-90
2022/07/22 11:34:55;;;;;;;2.42;1.92;;;;;;;21.57;58.78;101311.69;4950298;28;20091;-87
2022/07/22 11:37:25;;;;;;;3.20;2.28;;;;;;;21.84;57.58;101314.00;4950771;28;20077;-89
2022/07/22 11:40:00;;;;;;;2.40;2.20;;;;;;;21.72;57.73;101311.00;4921617;28;20054;-84
2022/07/22 11:42:30;;;;;;;5.07;2.05;;;;;;;21.53;58.12;101310.91;4949526;28;20049;-85
2022/07/22 11:44:58;;;;;;;3.15;1.90;;;;;;;21.34;59.02;101316.19;4919009;28;20447;-84
2022/07/22 11:47:26;;;;;;;2.72;2.08;;;;;;;21.14;59.21;101312.56;4928074;28;20173;-87